Time;durP1;ratioP1;P1;durP2;ratioP2;P2;SDS_P1;SDS_P2;PMS_P1;PMS_P2;Temp;Humidity;BMP_temperature;BMP_pressure;BME280_temperature;BME280_humidity;BME280_pressure;Samples;Min_cycle;Max_cycle;Signal;HPM_P1;HPM_P2
2022/12/18 00:00:32;;;;;;;92.40;38.05;;;-7.50;99.90;;;;;;4830676;29;20060;-79
2022/12/18 06:01:35;;;;;;;58.05;27.08;;;-8.70;99.90;;;;;;5778755;23;20069;-78
2022/12/18 06:04:38;;;;;;;55.00;25.38;;;-8.70;99.90;;;;;;4910837;29;20190;-79
2022/12/18 06:07:07;;;;;;;54.85;24.13;;;-8.80;99.90;;;;;;4910119;29;20072;-78
2022/12/18 06:16:42;;;;;;;56.53;25.70;;;-8.90;99.90;;;;;;4919144;29;20060;-79
2022/12/18 06:22:07;;;;;;;55.00;25.48;;;-9.10;99.90;;;;;;4910261;29;20329;-78
2022/12/18 06:24:45;;;;;;;49.53;24.45;;;-9.20;99.90;;;;;;4927765;29;20050;-79
2022/12/18 06:27:44;;;;;;;54.35;25.48;;;-9.20;99.90;;;;;;4927070;29;20087;-79
2022/12/18 06:30:15;;;;;;;51.75;23.88;;;-9.20;99.90;;;;;;4814349;29;20035;-76
2022/12/18 06:32:56;;;;;;;53.60;24.95;;;-9.10;99.90;;;;;;4798718;29;20039;-77
2022/12/18 06:35:47;;;;;;;60.55;25.50;;;-9.30;99.90;;;;;;4812951;29;20347;-77
2022/12/18 06:38:52;;;;;;;46.92;23.48;;;-9.40;99.90;;;;;;4799018;29;20390;-79
2022/12/18 06:52:50;;;;;;;;;;;;;;;;;;;;;
2022/12/18 06:56:19;;;;;;;56.05;25.55;;;-9.40;99.90;;;;;;4760727;30;20067;-79
2022/12/18 06:58:50;;;;;;;57.63;25.42;;;-9.20;99.90;;;;;;4756061;30;20070;-79
2022/12/18 07:04:54;;;;;;;58.83;24.85;;;-9.30;99.90;;;;;;4784194;29;20059;-79
2022/12/18 07:08:08;;;;;;;55.38;25.13;;;-9.30;99.90;;;;;;4853344;29;20029;-79
2022/12/18 07:14:09;;;;;;;55.75;25.60;;;-9.20;99.90;;;;;;4779394;30;20078;-78
2022/12/18 07:16:55;;;;;;;54.50;24.80;;;-9.20;99.90;;;;;;4778605;30;20412;-79
2022/12/18 07:19:36;;;;;;;53.55;24.23;;;-9.20;99.90;;;;;;4777917;30;20032;-80
2022/12/18 07:29:21;;;;;;;56.38;25.80;;;-9.00;99.90;;;;;;4813497;29;20049;-76
2022/12/18 07:31:49;;;;;;;55.17;24.55;;;-9.10;99.90;;;;;;4813742;29;20099;-76
2022/12/18 07:34:15;;;;;;;52.38;24.63;;;-9.20;99.90;;;;;;4813210;29;20070;-76
2022/12/18 07:36:41;;;;;;;54.40;25.77;;;-9.10;99.90;;;;;;4813636;29;20042;-75
2022/12/18 07:39:35;;;;;;;56.28;25.67;;;-9.00;99.90;;;;;;4813994;29;20107;-75
2022/12/18 07:45:13;;;;;;;63.58;28.20;;;-9.10;99.90;;;;;;4813244;29;20094;-75
2022/12/18 07:47:47;;;;;;;63.85;29.85;;;-9.10;99.90;;;;;;4859097;29;20234;-78
2022/12/18 07:50:18;;;;;;;57.88;26.42;;;-9.10;99.90;;;;;;4872166;29;20326;-76
2022/12/18 07:52:44;;;;;;;53.60;24.80;;;-9.10;99.90;;;;;;4888731;29;20036;-75
2022/12/18 07:55:33;;;;;;;57.80;25.65;;;-9.20;99.90;;;;;;4872185;29;20036;-76
2022/12/18 07:58:06;;;;;;;53.60;24.67;;;-9.10;99.90;;;;;;4813432;29;20048;-77
2022/12/18 08:01:08;;;;;;;56.45;24.88;;;-9.10;99.90;;;;;;4801713;29;20397;-76
2022/12/18 08:03:58;;;;;;;42.37;20.07;;;-9.00;99.90;;;;;;4810778;29;20050;-76
2022/12/18 08:06:27;;;;;;;50.75;23.15;;;-8.90;99.90;;;;;;4812828;29;20292;-77
2022/12/18 08:17:22;;;;;;;55.97;25.08;;;-9.00;99.90;;;;;;4813323;29;20058;-78
2022/12/18 08:20:25;;;;;;;55.25;25.98;;;-8.90;99.90;;;;;;4813375;29;20054;-75
2022/12/18 08:23:36;;;;;;;50.72;24.67;;;-8.90;99.90;;;;;;4816608;29;20190;-76
2022/12/18 08:26:43;;;;;;;57.65;25.40;;;-8.90;99.90;;;;;;4757163;29;20321;-76
2022/12/18 08:29:38;;;;;;;54.67;26.50;;;-8.90;99.90;;;;;;4812239;29;20050;-75
2022/12/18 08:35:36;;;;;;;53.97;24.70;;;-8.60;99.90;;;;;;4814720;29;20050;-76
2022/12/18 08:41:49;;;;;;;;;;;;;;;;;;;;;
2022/12/18 08:44:49;;;;;;;49.78;24.60;;;-8.20;99.90;;;;;;4758049;30;20125;-76
2022/12/18 08:47:14;;;;;;;55.80;25.17;;;-8.20;99.90;;;;;;4757426;30;20099;-77
2022/12/18 08:49:49;;;;;;;56.05;25.55;;;-8.10;99.90;;;;;;4681420;30;20062;-77
2022/12/18 08:52:55;;;;;;;51.28;23.65;;;-8.00;99.90;;;;;;4677596;30;20048;-78
2022/12/18 08:55:24;;;;;;;51.33;24.30;;;-7.90;99.90;;;;;;4722941;30;20051;-77
2022/12/18 08:58:33;;;;;;;53.70;24.92;;;-7.80;99.90;;;;;;4744600;30;20349;-78
2022/12/18 09:01:15;;;;;;;57.60;25.63;;;-7.80;99.90;;;;;;4727196;30;20045;-78
2022/12/18 09:06:45;;;;;;;57.17;24.92;;;-7.80;99.90;;;;;;4780711;30;20363;-79
2022/12/18 09:09:20;;;;;;;55.78;25.52;;;-7.60;99.90;;;;;;4805953;29;20136;-80
2022/12/18 09:11:56;;;;;;;56.72;25.33;;;-7.60;99.90;;;;;;4856578;29;20037;-77
2022/12/18 09:15:00;;;;;;;56.03;25.80;;;-7.60;99.90;;;;;;4872894;29;20033;-80
2022/12/18 09:17:47;;;;;;;;;;;;;;;;;;;;;
2022/12/18 09:24:36;;;;;;;54.42;24.45;;;-7.30;99.90;;;;;;4816819;29;20119;-78
2022/12/18 09:27:10;;;;;;;54.65;22.92;;;-7.30;99.90;;;;;;4820143;29;20180;-79
2022/12/18 09:30:00;;;;;;;53.30;25.10;;;-7.10;99.90;;;;;;4833776;29;20103;-81
2022/12/18 09:32:34;;;;;;;55.30;24.95;;;-7.00;99.90;;;;;;4834441;29;20063;-80
2022/12/18 09:35:01;;;;;;;62.83;25.48;;;-6.90;99.90;;;;;;4834155;29;20044;-79
2022/12/18 09:37:36;;;;;;;54.00;25.23;;;-6.80;99.90;;;;;;4805999;29;20186;-79
2022/12/18 09:40:22;;;;;;;51.80;24.20;;;-6.70;99.90;;;;;;4805646;29;20050;-79
2022/12/18 09:47:15;;;;;;;54.17;23.42;;;-6.40;99.90;;;;;;4815896;29;20216;-79
2022/12/18 09:50:06;;;;;;;58.72;24.90;;;-6.20;99.90;;;;;;4836793;29;20042;-80
2022/12/18 09:53:13;;;;;;;51.42;23.85;;;-6.00;99.90;;;;;;4794308;29;20102;-79
2022/12/18 09:59:18;;;;;;;51.33;23.88;;;-5.80;99.90;;;;;;4833844;29;20418;-79
2022/12/18 10:01:47;;;;;;;49.05;23.13;;;-5.60;99.90;;;;;;4833445;29;20038;-80
2022/12/18 10:04:31;;;;;;;49.47;22.65;;;-5.50;99.90;;;;;;4833661;29;20058;-80
2022/12/18 10:07:53;;;;;;;52.90;22.42;;;-5.40;99.90;;;;;;4833170;29;20370;-80
2022/12/18 10:10:56;;;;;;;53.15;23.90;;;-5.10;99.90;;;;;;4856595;29;20050;-75
2022/12/18 10:13:27;;;;;;;52.00;23.27;;;-5.10;99.90;;;;;;4869555;29;20040;-73
2022/12/18 10:16:17;;;;;;;52.70;24.05;;;-4.90;99.90;;;;;;4854865;29;20045;-74
2022/12/18 10:19:18;;;;;;;49.67;23.25;;;-4.70;99.90;;;;;;4854647;29;20037;-77
2022/12/18 10:22:33;;;;;;;53.30;25.20;;;-4.50;99.90;;;;;;4842732;29;20046;-73
2022/12/18 10:25:21;;;;;;;60.22;26.75;;;-4.50;99.90;;;;;;4796886;30;20069;-75
2022/12/18 10:28:18;;;;;;;60.28;26.23;;;-4.30;99.90;;;;;;4781933;30;20100;-78
2022/12/18 10:30:47;;;;;;;58.38;26.20;;;-4.30;99.90;;;;;;4875686;29;20060;-79
2022/12/18 10:33:31;;;;;;;52.90;25.75;;;-4.00;99.90;;;;;;4875135;29;20028;-82
2022/12/18 10:36:03;;;;;;;51.22;23.67;;;-3.70;99.90;;;;;;4898728;29;20091;-79
2022/12/18 10:38:31;;;;;;;53.42;24.98;;;-3.50;99.90;;;;;;4901778;29;20043;-78
2022/12/18 10:41:00;;;;;;;47.38;24.90;;;-3.30;99.90;;;;;;4900542;29;20045;-77
2022/12/18 10:43:28;;;;;;;48.63;24.42;;;-3.10;99.90;;;;;;4886061;29;20041;-79
2022/12/18 10:46:09;;;;;;;48.00;23.83;;;-2.70;99.90;;;;;;4899249;29;20032;-78
2022/12/18 10:48:41;;;;;;;47.10;22.92;;;-2.50;99.90;;;;;;4894652;29;20117;-75
2022/12/18 10:51:08;;;;;;;49.13;24.02;;;-2.20;99.90;;;;;;4916809;29;20048;-75
2022/12/18 10:53:36;;;;;;;47.33;23.52;;;-2.00;99.90;;;;;;4920735;29;20306;-77
2022/12/18 10:56:04;;;;;;;46.33;24.55;;;-1.90;99.90;;;;;;4927693;29;20299;-76
2022/12/18 10:58:33;;;;;;;49.90;24.73;;;-1.60;99.90;;;;;;4905178;29;20207;-78
2022/12/18 11:01:17;;;;;;;49.30;24.45;;;-1.20;99.90;;;;;;4889538;29;20033;-76
2022/12/18 11:03:45;;;;;;;46.63;23.60;;;-0.90;99.90;;;;;;4887981;29;20354;-76
2022/12/18 11:06:21;;;;;;;45.13;23.98;;;-0.70;99.90;;;;;;4918028;29;20310;-77
2022/12/18 11:09:05;;;;;;;44.95;23.70;;;-0.20;99.90;;;;;;4926580;29;20044;-77
2022/12/18 11:11:33;;;;;;;42.50;21.48;;;0.30;97.80;;;;;;4908064;29;20033;-76
2022/12/18 11:13:59;;;;;;;43.35;22.80;;;0.50;97.10;;;;;;4907058;29;20362;-78
2022/12/18 11:16:26;;;;;;;41.17;23.08;;;0.80;96.50;;;;;;4907710;29;20222;-75
2022/12/18 11:18:52;;;;;;;43.38;23.42;;;1.20;95.80;;;;;;4907134;29;20096;-76
2022/12/18 11:21:17;;;;;;;41.65;24.60;;;1.60;95.10;;;;;;4907968;29;20358;-76
2022/12/18 11:23:53;;;;;;;40.33;23.08;;;2.10;94.50;;;;;;4909343;29;20032;-77
2022/12/18 11:26:35;;;;;;;39.97;23.00;;;2.40;93.40;;;;;;4907832;29;20029;-77
2022/12/18 11:29:17;;;;;;;36.75;22.80;;;2.70;93.30;;;;;;4907596;29;20238;-76
2022/12/18 11:31:46;;;;;;;41.92;24.00;;;2.90;92.20;;;;;;4907484;29;20079;-77
2022/12/18 11:34:31;;;;;;;36.53;22.33;;;3.00;92.60;;;;;;4903254;29;20398;-77
2022/12/18 11:37:09;;;;;;;36.58;20.83;;;3.10;92.40;;;;;;4889037;29;20028;-76
2022/12/18 11:39:43;;;;;;;;;;;3.00;92.50;;;;;;4887916;29;20103;-78
2022/12/18 11:42:24;;;;;;;33.60;21.05;;;3.30;92.30;;;;;;4889173;29;20082;-78
2022/12/18 11:45:12;;;;;;;35.53;21.02;;;3.20;92.00;;;;;;4887838;29;20032;-76
2022/12/18 11:47:59;;;;;;;34.30;21.52;;;3.90;91.80;;;;;;4888275;29;20523;-77
2022/12/18 11:50:51;;;;;;;35.38;20.73;;;3.80;91.70;;;;;;4900315;29;20048;-74
2022/12/18 11:53:17;;;;;;;36.53;21.50;;;4.30;90.80;;;;;;4907844;29;20032;-76
2022/12/18 11:55:49;;;;;;;36.53;21.60;;;4.50;90.00;;;;;;4921841;29;20041;-75
2022/12/18 11:58:32;;;;;;;36.28;20.35;;;4.60;90.70;;;;;;4906228;29;20028;-75
2022/12/18 12:01:10;;;;;;;34.08;20.92;;;4.40;90.60;;;;;;4921978;29;20263;-74
2022/12/18 12:04:09;;;;;;;34.92;20.10;;;4.40;90.40;;;;;;4923140;29;20048;-74
2022/12/18 12:06:48;;;;;;;34.58;20.00;;;5.10;90.80;;;;;;4925742;29;20036;-75
2022/12/18 12:09:29;;;;;;;32.15;20.45;;;5.10;90.40;;;;;;4925119;29;20064;-75
2022/12/18 12:12:17;;;;;;;37.67;21.60;;;5.30;89.30;;;;;;4926222;29;20038;-76
2022/12/18 12:15:02;;;;;;;34.83;21.02;;;4.60;90.20;;;;;;4908292;29;20352;-73
2022/12/18 12:17:55;;;;;;;38.67;22.00;;;4.70;90.70;;;;;;4925882;29;20027;-74
2022/12/18 12:20:52;;;;;;;34.40;21.60;;;4.90;90.00;;;;;;4926345;29;20035;-76
2022/12/18 12:23:37;;;;;;;39.22;21.63;;;4.50;90.40;;;;;;4925511;29;20058;-75
2022/12/18 12:26:15;;;;;;;35.53;20.42;;;4.20;91.60;;;;;;4927062;29;20039;-74
2022/12/18 12:29:05;;;;;;;;;;;4.40;91.50;;;;;;4909411;29;20077;-76
2022/12/18 12:31:55;;;;;;;37.22;20.70;;;4.30;91.40;;;;;;4890321;29;19907;-74
2022/12/18 12:34:32;;;;;;;39.30;20.73;;;4.20;90.80;;;;;;4927713;29;20039;-75
2022/12/18 12:37:05;;;;;;;33.63;19.98;;;4.20;91.40;;;;;;4926134;29;20047;-73
2022/12/18 12:39:36;;;;;;;38.08;21.08;;;3.80;91.50;;;;;;4925448;29;20046;-75
2022/12/18 12:45:01;;;;;;;39.42;20.50;;;3.10;92.50;;;;;;4926123;29;20217;-74
2022/12/18 12:47:38;;;;;;;36.53;19.98;;;3.10;92.70;;;;;;4908498;29;20048;-75
2022/12/18 12:50:17;;;;;;;34.03;18.02;;;3.00;93.30;;;;;;4925555;29;20040;-74
2022/12/18 12:52:50;;;;;;;35.78;18.88;;;3.00;93.20;;;;;;4925423;29;20330;-77
2022/12/18 12:55:28;;;;;;;38.05;19.05;;;3.10;93.10;;;;;;4925683;29;20032;-74
2022/12/18 12:58:19;;;;;;;34.38;18.25;;;2.90;93.00;;;;;;4924621;29;20032;-74
2022/12/18 13:01:08;;;;;;;32.58;17.55;;;2.80;93.10;;;;;;4925392;29;20040;-74
2022/12/18 13:03:53;;;;;;;34.00;17.45;;;3.10;93.60;;;;;;4925094;29;20052;-74
2022/12/18 13:06:25;;;;;;;39.03;18.77;;;3.50;93.00;;;;;;4925467;29;20043;-74
2022/12/18 13:08:57;;;;;;;37.70;19.52;;;3.70;92.80;;;;;;4925198;29;20115;-75
2022/12/18 13:14:36;;;;;;;42.50;20.60;;;3.50;92.50;;;;;;4924463;29;20044;-74
2022/12/18 13:17:16;;;;;;;39.35;21.02;;;3.40;92.50;;;;;;4908548;29;20322;-74
2022/12/18 13:19:43;;;;;;;37.63;20.17;;;3.30;92.90;;;;;;4924952;29;20036;-75
2022/12/18 13:22:30;;;;;;;38.40;19.73;;;3.20;92.80;;;;;;4908424;29;20080;-75
2022/12/18 13:24:59;;;;;;;39.60;19.02;;;3.20;92.90;;;;;;4925468;29;20028;-73
2022/12/18 13:27:44;;;;;;;33.53;17.63;;;3.00;92.80;;;;;;4892863;29;20032;-75
2022/12/18 13:30:45;;;;;;;33.67;17.90;;;2.80;93.40;;;;;;4925232;29;20052;-74
2022/12/18 13:33:14;;;;;;;37.72;18.98;;;3.00;93.70;;;;;;4924218;29;20218;-73
2022/12/18 13:35:50;;;;;;;39.08;20.23;;;3.10;93.60;;;;;;4925125;29;20028;-74
2022/12/18 13:38:31;;;;;;;39.00;19.90;;;3.00;93.20;;;;;;4925246;29;20301;-76
2022/12/18 13:41:01;;;;;;;37.80;19.25;;;2.90;93.80;;;;;;4925132;29;20028;-74
2022/12/18 13:43:45;;;;;;;37.85;19.48;;;2.90;93.50;;;;;;4928486;29;20345;-76
2022/12/18 13:46:22;;;;;;;45.85;20.33;;;3.00;93.70;;;;;;4927556;29;20221;-75
2022/12/18 13:49:02;;;;;;;43.47;19.95;;;2.70;94.00;;;;;;4928344;29;20171;-74
2022/12/18 13:51:31;;;;;;;38.70;18.92;;;2.50;94.20;;;;;;4911491;29;20099;-76
2022/12/18 13:54:04;;;;;;;40.58;20.83;;;2.40;94.70;;;;;;4927666;29;20059;-73
2022/12/18 13:56:34;;;;;;;43.92;21.05;;;2.30;94.80;;;;;;4928301;29;20032;-74
2022/12/18 13:59:14;;;;;;;44.30;22.05;;;2.40;94.80;;;;;;4928437;29;20230;-75
2022/12/18 14:01:50;;;;;;;39.90;20.65;;;2.40;94.90;;;;;;4927435;29;20263;-76
2022/12/18 14:04:28;;;;;;;42.63;21.85;;;2.20;95.00;;;;;;4928629;29;20104;-75
2022/12/18 14:07:10;;;;;;;43.28;22.80;;;1.90;95.90;;;;;;4911255;29;20156;-73
2022/12/18 14:09:40;;;;;;;46.30;22.27;;;1.70;95.90;;;;;;4926715;29;20040;-73
2022/12/18 14:14:59;;;;;;;41.83;22.00;;;1.60;96.60;;;;;;4928376;29;20210;-73
2022/12/18 14:17:25;;;;;;;47.55;21.83;;;1.50;96.90;;;;;;4928557;29;20032;-74
2022/12/18 14:19:51;;;;;;;46.35;22.85;;;1.50;96.90;;;;;;4910819;29;20039;-74
2022/12/18 14:22:20;;;;;;;43.25;21.85;;;1.30;97.40;;;;;;4928279;29;20205;-75
2022/12/18 14:25:04;;;;;;;42.35;22.35;;;1.30;97.50;;;;;;4926853;29;20036;-77
2022/12/18 14:27:30;;;;;;;46.33;23.13;;;1.30;98.00;;;;;;4927960;29;20044;-76
2022/12/18 14:29:56;;;;;;;50.42;23.15;;;1.20;97.90;;;;;;4928101;29;20092;-74
2022/12/18 14:32:22;;;;;;;48.00;24.08;;;1.10;98.10;;;;;;4928129;29;20157;-75
2022/12/18 14:34:53;;;;;;;45.92;22.17;;;0.90;98.60;;;;;;4927766;29;20072;-75
2022/12/18 14:37:24;;;;;;;48.25;23.35;;;0.90;98.90;;;;;;4927989;29;20063;-76
2022/12/18 14:40:02;;;;;;;43.17;22.35;;;0.70;99.20;;;;;;4927492;29;20610;-74
2022/12/18 14:42:33;;;;;;;45.20;21.88;;;0.60;99.40;;;;;;4894952;29;20055;-74
2022/12/18 14:45:54;;;;;;;53.63;24.52;;;0.30;99.90;;;;;;4910991;29;20044;-73
2022/12/18 14:48:39;;;;;;;47.20;22.20;;;0.20;99.90;;;;;;4886004;29;20052;-77
2022/12/18 14:51:13;;;;;;;49.58;22.95;;;0.00;99.90;;;;;;4927868;29;20048;-76
2022/12/18 14:53:44;;;;;;;56.45;24.48;;;-0.10;99.90;;;;;;4909645;29;20032;-76
2022/12/18 14:56:30;;;;;;;59.80;26.92;;;-0.30;99.90;;;;;;4911255;29;20099;-75
2022/12/18 14:58:59;;;;;;;58.53;26.45;;;-0.50;99.90;;;;;;4910467;29;20128;-74
2022/12/18 15:01:48;;;;;;;57.72;25.15;;;-0.60;99.90;;;;;;4927500;29;20095;-73
2022/12/18 15:04:35;;;;;;;63.60;27.05;;;-0.80;99.90;;;;;;4888674;29;20104;-74
2022/12/18 15:07:20;;;;;;;61.88;24.52;;;-1.00;99.90;;;;;;4888812;29;20100;-76
2022/12/18 15:10:24;;;;;;;50.35;23.85;;;-1.10;99.90;;;;;;4889415;29;20326;-74
2022/12/18 15:12:50;;;;;;;45.40;22.20;;;-1.20;99.90;;;;;;4889360;29;20036;-76
2022/12/18 15:15:37;;;;;;;47.03;22.38;;;-1.30;99.90;;;;;;4888566;29;20037;-75
2022/12/18 15:18:07;;;;;;;47.75;21.52;;;-1.40;99.90;;;;;;4889842;29;20307;-74
2022/12/18 15:20:48;;;;;;;46.80;22.67;;;-1.50;99.90;;;;;;4903682;29;20037;-75
2022/12/18 15:23:23;;;;;;;53.45;22.95;;;-1.60;99.90;;;;;;4888542;29;20033;-74
2022/12/18 15:26:18;;;;;;;53.90;22.55;;;-1.70;99.90;;;;;;4889234;29;20033;-74
2022/12/18 15:28:52;;;;;;;48.10;21.65;;;-1.70;99.90;;;;;;4887648;29;20109;-76
2022/12/18 15:31:35;;;;;;;49.72;21.55;;;-1.70;99.90;;;;;;4890092;29;20033;-73
2022/12/18 15:34:21;;;;;;;49.92;21.83;;;-1.80;99.90;;;;;;4892379;29;20032;-75
2022/12/18 15:36:47;;;;;;;50.25;21.85;;;-1.90;99.90;;;;;;4894427;29;20056;-74
2022/12/18 15:39:13;;;;;;;52.22;21.67;;;-1.90;99.90;;;;;;4896234;29;20052;-73
2022/12/18 15:41:39;;;;;;;52.53;21.88;;;-2.00;99.90;;;;;;4890824;29;20048;-78
2022/12/18 15:44:22;;;;;;;48.15;23.00;;;-2.00;99.90;;;;;;4903689;29;20033;-75
2022/12/18 15:46:48;;;;;;;47.55;22.05;;;-2.10;99.90;;;;;;4888648;29;20092;-74
2022/12/18 15:49:14;;;;;;;56.05;23.33;;;-2.10;99.90;;;;;;4888741;29;20044;-76
2022/12/18 15:51:43;;;;;;;55.50;22.70;;;-2.20;99.90;;;;;;4889006;29;20032;-75
2022/12/18 15:54:13;;;;;;;52.47;23.35;;;-2.30;99.90;;;;;;4887615;29;20029;-75
2022/12/18 15:59:26;;;;;;;49.15;23.60;;;-2.30;99.90;;;;;;4888811;29;20092;-77
2022/12/18 16:01:55;;;;;;;58.63;23.92;;;-2.30;99.90;;;;;;4893253;29;20044;-76
2022/12/18 16:04:23;;;;;;;51.42;22.40;;;-2.30;99.90;;;;;;4926008;29;20057;-75
2022/12/18 16:06:51;;;;;;;45.22;17.98;;;-2.30;99.90;;;;;;4925884;29;20092;-74
2022/12/18 16:09:17;;;;;;;50.70;22.30;;;-2.30;99.90;;;;;;4909128;29;20068;-74
2022/12/18 16:11:45;;;;;;;48.95;22.02;;;-2.40;99.90;;;;;;4925305;29;20099;-73
2022/12/18 16:14:20;;;;;;;51.75;21.73;;;-2.40;99.90;;;;;;4926174;29;20145;-73
2022/12/18 16:16:51;;;;;;;52.58;22.67;;;-2.40;99.90;;;;;;4909449;29;20125;-74
2022/12/18 16:19:18;;;;;;;56.75;23.75;;;-2.40;99.90;;;;;;4924857;29;20340;-76
2022/12/18 16:21:48;;;;;;;56.70;23.80;;;-2.40;99.90;;;;;;4926193;29;20063;-76
2022/12/18 16:24:23;;;;;;;52.65;23.10;;;-2.40;99.90;;;;;;4909339;29;20126;-74
2022/12/18 16:26:51;;;;;;;51.30;22.85;;;-2.40;99.90;;;;;;4909066;29;20040;-75
2022/12/18 16:29:18;;;;;;;50.97;22.48;;;-2.40;99.90;;;;;;4926067;29;20259;-76
2022/12/18 16:31:44;;;;;;;56.85;23.20;;;-2.40;99.90;;;;;;4925266;29;20051;-75
2022/12/18 16:34:25;;;;;;;56.10;24.73;;;-2.30;99.90;;;;;;4909024;29;20055;-73
2022/12/18 16:36:53;;;;;;;51.33;23.20;;;-2.30;99.90;;;;;;4925098;29;20095;-73
2022/12/18 16:39:21;;;;;;;44.15;19.27;;;-2.30;99.90;;;;;;4925801;29;20063;-76
2022/12/18 16:41:47;;;;;;;53.80;24.00;;;-2.30;99.90;;;;;;4925200;29;20036;-75
2022/12/18 16:44:13;;;;;;;55.47;23.38;;;-2.40;99.90;;;;;;4908797;29;20073;-74
2022/12/18 16:46:45;;;;;;;55.50;24.05;;;-2.30;99.90;;;;;;4925126;29;20072;-74
2022/12/18 16:49:13;;;;;;;51.72;22.02;;;-2.30;99.90;;;;;;4925603;29;20064;-76
2022/12/18 16:51:39;;;;;;;49.35;21.98;;;-2.30;99.90;;;;;;4925079;29;20036;-74
2022/12/18 16:54:04;;;;;;;57.80;24.40;;;-2.30;99.90;;;;;;4925679;29;20032;-76
2022/12/18 16:56:31;;;;;;;53.15;23.92;;;-2.30;99.90;;;;;;4925411;29;20091;-75
2022/12/18 16:58:58;;;;;;;56.88;24.58;;;-2.30;99.90;;;;;;4925173;29;20036;-76
2022/12/18 17:01:25;;;;;;;53.13;23.52;;;-2.30;99.90;;;;;;4908548;29;20258;-73
2022/12/18 17:03:55;;;;;;;53.15;24.02;;;-2.30;99.90;;;;;;4924951;29;20051;-74
2022/12/18 17:06:22;;;;;;;54.67;23.15;;;-2.30;99.90;;;;;;4925635;29;20040;-74
2022/12/18 17:08:54;;;;;;;51.22;23.05;;;-2.30;99.90;;;;;;4923821;29;20095;-73
2022/12/18 17:11:22;;;;;;;56.10;24.45;;;-2.30;99.90;;;;;;4908850;29;20032;-73
2022/12/18 17:13:49;;;;;;;51.55;22.20;;;-2.30;99.90;;;;;;4908022;29;20059;-72
2022/12/18 17:16:16;;;;;;;51.88;22.33;;;-2.30;99.90;;;;;;4908534;29;20336;-75
2022/12/18 17:18:42;;;;;;;50.97;22.45;;;-2.30;99.90;;;;;;4928730;29;20298;-74
2022/12/18 17:21:17;;;;;;;52.75;23.65;;;-2.20;99.90;;;;;;4929137;29;20038;-76
2022/12/18 17:23:43;;;;;;;53.13;23.45;;;-2.20;99.90;;;;;;4928439;29;20023;-74
2022/12/18 17:26:11;;;;;;;50.28;22.95;;;-2.30;99.90;;;;;;4928879;29;20024;-76
2022/12/18 17:28:44;;;;;;;46.45;21.98;;;-2.30;99.90;;;;;;4911618;29;20206;-73
2022/12/18 17:31:13;;;;;;;48.22;22.08;;;-2.30;99.90;;;;;;4911865;29;20032;-73
2022/12/18 17:33:39;;;;;;;51.38;22.08;;;-2.30;99.90;;;;;;4928538;29;20218;-75
2022/12/18 17:36:06;;;;;;;51.53;23.08;;;-2.20;99.90;;;;;;4911414;29;20322;-75
2022/12/18 17:38:32;;;;;;;46.95;21.33;;;-2.20;99.90;;;;;;4911773;29;20103;-75
2022/12/18 17:41:02;;;;;;;55.50;24.95;;;-2.30;99.90;;;;;;4928529;29;20039;-74
2022/12/18 17:43:28;;;;;;;51.03;23.63;;;-2.20;99.90;;;;;;4912076;29;20301;-75
2022/12/18 17:46:02;;;;;;;53.08;24.00;;;-2.20;99.90;;;;;;4928489;29;20032;-74
2022/12/18 17:48:28;;;;;;;49.33;22.17;;;-2.20;99.90;;;;;;4928526;29;20277;-76
2022/12/18 17:50:54;;;;;;;47.67;21.73;;;-2.20;99.90;;;;;;4928144;29;20322;-75
2022/12/18 17:53:19;;;;;;;51.33;24.10;;;-2.20;99.90;;;;;;4929067;29;20044;-73
2022/12/18 17:55:55;;;;;;;50.92;21.73;;;-2.30;99.90;;;;;;4928142;29;20031;-74
2022/12/18 17:58:21;;;;;;;45.80;22.55;;;-2.30;99.90;;;;;;4928684;29;20329;-75
2022/12/18 18:00:47;;;;;;;50.42;22.50;;;-2.20;99.90;;;;;;4928257;29;20072;-74
2022/12/18 18:03:13;;;;;;;46.40;21.67;;;-2.10;99.90;;;;;;4927798;29;20246;-75
2022/12/18 18:05:39;;;;;;;48.80;22.30;;;-2.20;99.90;;;;;;4911713;29;20024;-76
2022/12/18 18:08:05;;;;;;;48.70;21.75;;;-2.20;99.90;;;;;;4895363;29;20028;-74
2022/12/18 18:10:38;;;;;;;48.47;21.38;;;-2.20;99.90;;;;;;4928314;29;20099;-77
2022/12/18 18:16:12;;;;;;;48.85;21.77;;;-2.20;99.90;;;;;;4928068;29;20027;-75
2022/12/18 18:18:38;;;;;;;48.03;20.80;;;-2.20;99.90;;;;;;4926779;29;20044;-75
2022/12/18 18:21:05;;;;;;;48.60;21.63;;;-2.20;99.90;;;;;;4910893;29;20117;-74
2022/12/18 18:23:32;;;;;;;49.67;23.13;;;-2.20;99.90;;;;;;4911170;29;20329;-73
2022/12/18 18:26:05;;;;;;;49.05;23.13;;;-2.20;99.90;;;;;;4927575;29;20039;-74
2022/12/18 18:28:35;;;;;;;48.78;22.00;;;-2.20;99.90;;;;;;4927752;29;20059;-73
2022/12/18 18:31:05;;;;;;;46.53;21.55;;;-2.10;99.90;;;;;;4927193;29;20052;-75
2022/12/18 18:33:32;;;;;;;46.33;20.90;;;-2.10;99.90;;;;;;4927879;29;20032;-75
2022/12/18 18:36:01;;;;;;;51.75;22.05;;;-2.10;99.90;;;;;;4910438;29;20217;-76
2022/12/18 18:38:28;;;;;;;48.03;21.45;;;-2.20;99.90;;;;;;4910780;29;20346;-76
2022/12/18 18:41:01;;;;;;;45.92;20.80;;;-2.20;99.90;;;;;;4927108;29;20059;-74
2022/12/18 18:43:33;;;;;;;46.97;21.70;;;-2.20;99.90;;;;;;4927824;29;20032;-75
2022/12/18 18:46:01;;;;;;;48.33;21.27;;;-2.20;99.90;;;;;;4927157;29;20032;-75
2022/12/18 18:48:34;;;;;;;50.75;22.25;;;-2.20;99.90;;;;;;4910714;29;20114;-76
2022/12/18 18:51:06;;;;;;;48.42;21.45;;;-2.20;99.90;;;;;;4927002;29;20040;-75
2022/12/18 18:53:36;;;;;;;48.10;20.90;;;-2.20;99.90;;;;;;4927904;29;20036;-75
2022/12/18 18:56:03;;;;;;;50.45;22.33;;;-2.20;99.90;;;;;;4910113;29;20243;-75
2022/12/18 18:58:29;;;;;;;45.88;21.35;;;-2.10;99.90;;;;;;4927056;29;20068;-75
2022/12/18 19:01:00;;;;;;;49.40;21.00;;;-2.10;99.90;;;;;;4926946;29;20102;-76
2022/12/18 19:03:27;;;;;;;46.42;21.35;;;-2.00;99.90;;;;;;4909941;29;20047;-72
2022/12/18 19:05:56;;;;;;;47.92;22.75;;;-2.00;99.90;;;;;;4926387;29;20055;-73
2022/12/18 19:08:30;;;;;;;42.88;21.13;;;-2.00;99.90;;;;;;4926914;29;20084;-73
2022/12/18 19:10:59;;;;;;;53.15;22.42;;;-2.00;99.90;;;;;;4925404;29;20028;-72
2022/12/18 19:13:28;;;;;;;48.80;21.60;;;-2.00;99.90;;;;;;4910407;29;20036;-73
2022/12/18 19:16:21;;;;;;;45.95;21.33;;;-2.00;99.90;;;;;;4926834;29;20036;-76
2022/12/18 19:18:47;;;;;;;51.10;22.08;;;-2.10;99.90;;;;;;4922218;29;20055;-73
2022/12/18 19:21:13;;;;;;;48.85;20.65;;;-2.10;99.90;;;;;;4910372;29;20055;-74
2022/12/18 19:23:38;;;;;;;57.70;28.38;;;-2.20;99.90;;;;;;4926432;29;20123;-74
2022/12/18 19:26:08;;;;;;;67.18;31.20;;;-2.10;99.90;;;;;;4926376;29;20079;-76
2022/12/18 19:28:34;;;;;;;54.38;24.80;;;-2.00;99.90;;;;;;4926977;29;20161;-76
2022/12/18 19:31:06;;;;;;;48.70;23.15;;;-1.90;99.90;;;;;;4926488;29;20034;-72
2022/12/18 19:33:38;;;;;;;47.55;21.15;;;-1.90;99.90;;;;;;4909935;29;20036;-75
2022/12/18 19:36:11;;;;;;;46.28;20.42;;;-1.90;99.90;;;;;;4926489;29;20020;-77
2022/12/18 19:38:38;;;;;;;48.38;22.05;;;-2.00;99.90;;;;;;4926423;29;20043;-73
2022/12/18 19:41:07;;;;;;;50.83;22.45;;;-2.10;99.90;;;;;;4924248;29;20039;-75
2022/12/18 19:43:36;;;;;;;52.65;22.42;;;-2.20;99.90;;;;;;4909524;29;20039;-74
2022/12/18 19:46:06;;;;;;;49.33;21.65;;;-2.10;99.90;;;;;;4925792;29;20038;-74
2022/12/18 19:48:35;;;;;;;49.85;23.05;;;-2.10;99.90;;;;;;4926346;29;20047;-76
2022/12/18 19:51:10;;;;;;;49.38;22.40;;;-2.10;99.90;;;;;;4926052;29;20028;-73
2022/12/18 19:53:36;;;;;;;51.17;24.02;;;-2.10;99.90;;;;;;4926810;29;20095;-75
2022/12/18 19:56:11;;;;;;;54.97;23.92;;;-2.10;99.90;;;;;;4912957;29;20048;-74
2022/12/18 19:58:37;;;;;;;49.78;22.60;;;-2.00;99.90;;;;;;4929004;29;20039;-75
2022/12/18 20:01:04;;;;;;;50.17;22.77;;;-2.00;99.90;;;;;;4937232;29;20028;-75
2022/12/18 20:03:30;;;;;;;49.45;20.33;;;-2.00;99.90;;;;;;4905703;29;20115;-76
2022/12/18 20:06:09;;;;;;;45.90;20.17;;;-2.00;99.90;;;;;;4906684;29;20207;-75
2022/12/18 20:08:38;;;;;;;45.97;19.98;;;-1.90;99.90;;;;;;4906974;29;20339;-73
2022/12/18 20:11:04;;;;;;;51.75;22.15;;;-1.90;99.90;;;;;;4906584;29;20218;-76
2022/12/18 20:13:30;;;;;;;46.20;21.30;;;-1.90;99.90;;;;;;4907074;29;20032;-74
2022/12/18 20:15:56;;;;;;;52.25;21.73;;;-1.90;99.90;;;;;;4906643;29;20080;-74
2022/12/18 20:18:24;;;;;;;44.28;19.33;;;-1.90;99.90;;;;;;4906947;29;20041;-75
2022/12/18 20:20:50;;;;;;;;;;;-1.90;99.90;;;;;;4907067;29;20092;-74
2022/12/18 20:23:17;;;;;;;44.72;20.25;;;-1.90;99.90;;;;;;4907088;29;19907;-73
2022/12/18 20:25:43;;;;;;;43.92;19.40;;;-1.90;99.90;;;;;;4908011;29;20040;-73
2022/12/18 20:28:12;;;;;;;63.50;28.98;;;-2.00;99.90;;;;;;4891499;29;20109;-72
2022/12/18 20:30:41;;;;;;;64.85;29.30;;;-2.00;99.90;;;;;;4893249;29;20033;-72
2022/12/18 20:33:07;;;;;;;53.72;25.45;;;-1.90;99.90;;;;;;4889106;29;20109;-74
2022/12/18 20:35:32;;;;;;;48.60;21.85;;;-1.80;99.90;;;;;;4896160;29;20029;-72
2022/12/18 20:38:01;;;;;;;48.70;23.33;;;-1.90;99.90;;;;;;4890253;29;20048;-74